APL Denmark — A8JX9 — position and weather

sailwx.info

Track history (hours):
 
Tides and Currents Weather Stations Pressure Air Temp Water Temp Dewpoint Dewpoint Depression Visibility Wind Speed Wind Dir Waves Ship Positions

APL Denmark

Last reported at 2016-Feb-07 21:33 UTC. Time now 2016-Feb-09 05:51 UTC.
Position S 35°03' W 055°51'.

Length 277 m; beam 40 m; draft 14 m.

Type: Ship. MMSI: 636091157.

Date/timePositionNaut miles runAvg speedWind from/ knotsBaromVisibWave heightAir tempDewpointWater temp
2016-Feb-07 21:33S 35°03' W 055°51'1111.2
2016-Feb-07 20:33S 35°01' W 056°05'9 0.7
2016-Feb-07 07:32S 34°54' W 056°12'0 0.1
2016-Feb-07 06:33S 34°54' W 056°12'8 6.2
2016-Feb-07 05:20S 35°01' W 056°09'30 7.2
2016-Feb-07 01:09S 35°10' W 056°43'813.2
2016-Feb-07 00:32S 35°10' W 056°53'1313.2
2016-Feb-06 23:33S 35°04' W 057°08'1414.3
2016-Feb-06 22:34S 34°54' W 057°19'3 1.4
2016-Feb-06 20:15S 34°52' W 057°22'0 0.0
2016-Feb-06 19:30S 34°52' W 057°22'0 0.0
2016-Feb-06 18:33S 34°52' W 057°22'0 0.0
2016-Feb-06 17:33S 34°52' W 057°22'3 1.5
2016-Feb-06 15:18S 34°50' W 057°25'1315.3
2016-Feb-06 14:25S 34°44' W 057°40'1112.0
2016-Feb-06 13:31S 34°42' W 057°53'1515.7
2016-Feb-06 12:34S 34°37' W 058°11'9 8.5
2016-Feb-06 11:33S 34°38' W 058°21'1 0.1
2016-Feb-06 02:20S 34°39' W 058°20'0 0.0
2016-Feb-06 01:32S 34°39' W 058°20'0 0.0
2016-Feb-06 00:29S 34°39' W 058°20'0 0.0
2016-Feb-05 23:26S 34°39' W 058°20'0 0.0
2016-Feb-05 22:32S 34°39' W 058°20'0 0.0
2016-Feb-05 21:29S 34°39' W 058°20'0 0.0
2016-Feb-05 20:32S 34°39' W 058°20'0 0.0
2016-Feb-05 19:32S 34°39' W 058°20'0 0.0
2016-Feb-05 18:32S 34°39' W 058°20'0 0.0
2016-Feb-05 17:32S 34°39' W 058°20'0 0.0
2016-Feb-05 16:32S 34°39' W 058°20'0 0.0
2016-Feb-05 15:32S 34°39' W 058°20'0 0.0
2016-Feb-05 14:32S 34°39' W 058°20'0 0.0
2016-Feb-05 13:17S 34°39' W 058°20'0 0.0
2016-Feb-05 12:17S 34°39' W 058°20'0 0.0
2016-Feb-05 11:32S 34°39' W 058°20'0 0.0
2016-Feb-05 10:32S 34°39' W 058°20'0 0.0
2016-Feb-05 08:20S 34°39' W 058°20'0 0.0
2016-Feb-05 04:11S 34°39' W 058°20'1 1.2
2016-Feb-05 03:33S 34°38' W 058°21'8 7.8
2016-Feb-05 02:33S 34°37' W 058°12'1312.8
2016-Feb-05 01:33S 34°41' W 057°57'8 8.1
2016-Feb-05 00:34S 34°44' W 057°48'1212.3
2016-Feb-04 23:33S 34°46' W 057°33'1413.7
2016-Feb-04 22:33S 34°54' W 057°19'1514.0
2016-Feb-04 21:31S 35°05' W 057°07'1212.3
2016-Feb-04 20:34S 35°10' W 056°54'1413.8
2016-Feb-04 19:33S 35°10' W 056°37'1413.6
2016-Feb-04 18:33S 35°10' W 056°21'1413.7
2016-Feb-04 17:34S 35°07' W 056°05'6 4.3
2016-Feb-04 16:13S 35°04' W 055°58'  
2016-Feb-02 12:00S 25°42' W 047°06'3412.6 180 / 91015.110.8 0.531.024.229.0
2016-Feb-02 09:18S 25°10' W 046°52'1212.3
2016-Feb-02 08:20S 24°59' W 046°47'1012.6
2016-Feb-02 07:33S 24°50' W 046°43'1312.6
2016-Feb-02 06:33S 24°39' W 046°37'1312.8
2016-Feb-02 05:33S 24°27' W 046°31'1313.0
2016-Feb-02 04:33S 24°15' W 046°26'1313.0
2016-Feb-02 03:33S 24°03' W 046°21'2 2.2
2016-Feb-02 02:33S 24°01' W 046°21'5 4.9
2016-Feb-02 01:33S 23°56' W 046°19'1 0.0
2016-Feb-01 07:11S 23°56' W 046°19'2 3.5
2016-Feb-01 06:33S 23°58' W 046°18'7 6.6
2016-Feb-01 05:33S 24°03' W 046°21'1110.8
2016-Feb-01 04:33S 24°14' W 046°21'1111.0
2016-Feb-01 03:33S 24°22' W 046°13'1111.0
2016-Feb-01 02:33S 24°22' W 046°01'1211.9
2016-Feb-01 01:33S 24°18' W 045°48'1211.9
2016-Feb-01 00:33S 24°15' W 045°36'1211.9
2016-Jan-31 23:33S 24°12' W 045°23'1211.9
2016-Jan-31 22:33S 24°09' W 045°10'1212.3
2016-Jan-31 21:33S 24°06' W 044°58'1212.4
2016-Jan-31 20:33S 24°02' W 044°44'1212.1
2016-Jan-31 19:33S 23°59' W 044°32'1212.5
2016-Jan-31 18:33S 23°55' W 044°19'1212.2
2016-Jan-31 17:33S 23°52' W 044°06'6212.4
2016-Jan-31 12:33S 23°36' W 043°01'1322.9
2016-Jan-31 12:00S 23°30' W 042°48'14 9.0 010 / 161015.910.8 1.025.023.826.0
2016-Jan-31 10:29S 23°28' W 042°33'1212.2
2016-Jan-31 09:32S 23°25' W 042°21'1212.1
2016-Jan-31 08:33S 23°21' W 042°09'1212.0
2016-Jan-31 07:33S 23°17' W 041°57'10313.6
2016-Jan-31 00:00S 22°06' W 040°36'15512.9 050 / 141016.210.8 25.223.5
2016-Jan-30 12:00S 20°00' W 039°00'16013.4 160 / 81018.010.8 0.529.023.229.0
2016-Jan-30 00:00S 17°30' W 038°00'15312.8 130 / 61016.5 5.4 27.022.6
2016-Jan-29 12:00S 15°06' W 037°06'15312.8 140 / 111017.310.8 1.529.822.730.0
2016-Jan-29 00:00S 12°42' W 036°12'   140 / 121015.010.8 27.223.9
Track history (hours):
 
Tides and Currents Weather Stations Pressure Air Temp Water Temp Dewpoint Dewpoint Depression Visibility Wind Speed Wind Dir Waves Ship Positions

APL Denmark

Last reported at 2016-Feb-07 21:33 UTC. Time now 2016-Feb-09 05:51 UTC.
Position S 35°03' W 055°51'.

Length 277 m; beam 40 m; draft 14 m.

Type: Ship. MMSI: 636091157.

Date/timePositionNaut miles runAvg speedWind from/ knotsBaromVisibWave heightAir tempDewpointWater temp
2016-Feb-07 21:33S 35°03' W 055°51'1111.2
2016-Feb-07 20:33S 35°01' W 056°05'9 0.7
2016-Feb-07 07:32S 34°54' W 056°12'0 0.1
2016-Feb-07 06:33S 34°54' W 056°12'8 6.2
2016-Feb-07 05:20S 35°01' W 056°09'30 7.2
2016-Feb-07 01:09S 35°10' W 056°43'813.2
2016-Feb-07 00:32S 35°10' W 056°53'1313.2
2016-Feb-06 23:33S 35°04' W 057°08'1414.3
2016-Feb-06 22:34S 34°54' W 057°19'3 1.4
2016-Feb-06 20:15S 34°52' W 057°22'0 0.0
2016-Feb-06 19:30S 34°52' W 057°22'0 0.0
2016-Feb-06 18:33S 34°52' W 057°22'0 0.0
2016-Feb-06 17:33S 34°52' W 057°22'3 1.5
2016-Feb-06 15:18S 34°50' W 057°25'1315.3
2016-Feb-06 14:25S 34°44' W 057°40'1112.0
2016-Feb-06 13:31S 34°42' W 057°53'1515.7
2016-Feb-06 12:34S 34°37' W 058°11'9 8.5
2016-Feb-06 11:33S 34°38' W 058°21'1 0.1
2016-Feb-06 02:20S 34°39' W 058°20'0 0.0
2016-Feb-06 01:32S 34°39' W 058°20'0 0.0
2016-Feb-06 00:29S 34°39' W 058°20'0 0.0
2016-Feb-05 23:26S 34°39' W 058°20'0 0.0
2016-Feb-05 22:32S 34°39' W 058°20'0 0.0
2016-Feb-05 21:29S 34°39' W 058°20'0 0.0
2016-Feb-05 20:32S 34°39' W 058°20'0 0.0
2016-Feb-05 19:32S 34°39' W 058°20'0 0.0
2016-Feb-05 18:32S 34°39' W 058°20'0 0.0
2016-Feb-05 17:32S 34°39' W 058°20'0 0.0
2016-Feb-05 16:32S 34°39' W 058°20'0 0.0
2016-Feb-05 15:32S 34°39' W 058°20'0 0.0
2016-Feb-05 14:32S 34°39' W 058°20'0 0.0
2016-Feb-05 13:17S 34°39' W 058°20'0 0.0
2016-Feb-05 12:17S 34°39' W 058°20'0 0.0
2016-Feb-05 11:32S 34°39' W 058°20'0 0.0
2016-Feb-05 10:32S 34°39' W 058°20'0 0.0
2016-Feb-05 08:20S 34°39' W 058°20'0 0.0
2016-Feb-05 04:11S 34°39' W 058°20'1 1.2
2016-Feb-05 03:33S 34°38' W 058°21'8 7.8
2016-Feb-05 02:33S 34°37' W 058°12'1312.8
2016-Feb-05 01:33S 34°41' W 057°57'8 8.1
2016-Feb-05 00:34S 34°44' W 057°48'1212.3
2016-Feb-04 23:33S 34°46' W 057°33'1413.7
2016-Feb-04 22:33S 34°54' W 057°19'1514.0
2016-Feb-04 21:31S 35°05' W 057°07'1212.3
2016-Feb-04 20:34S 35°10' W 056°54'1413.8
2016-Feb-04 19:33S 35°10' W 056°37'1413.6
2016-Feb-04 18:33S 35°10' W 056°21'1413.7
2016-Feb-04 17:34S 35°07' W 056°05'6 4.3
2016-Feb-04 16:13S 35°04' W 055°58'  
2016-Feb-02 12:00S 25°42' W 047°06'3412.6 180 / 91015.110.8 0.531.024.229.0
2016-Feb-02 09:18S 25°10' W 046°52'1212.3
2016-Feb-02 08:20S 24°59' W 046°47'1012.6
2016-Feb-02 07:33S 24°50' W 046°43'1312.6
2016-Feb-02 06:33S 24°39' W 046°37'1312.8
2016-Feb-02 05:33S 24°27' W 046°31'1313.0
2016-Feb-02 04:33S 24°15' W 046°26'1313.0
2016-Feb-02 03:33S 24°03' W 046°21'2 2.2
2016-Feb-02 02:33S 24°01' W 046°21'5 4.9
2016-Feb-02 01:33S 23°56' W 046°19'1 0.0
2016-Feb-01 07:11S 23°56' W 046°19'2 3.5
2016-Feb-01 06:33S 23°58' W 046°18'7 6.6
2016-Feb-01 05:33S 24°03' W 046°21'1110.8
2016-Feb-01 04:33S 24°14' W 046°21'1111.0
2016-Feb-01 03:33S 24°22' W 046°13'1111.0
2016-Feb-01 02:33S 24°22' W 046°01'1211.9
2016-Feb-01 01:33S 24°18' W 045°48'1211.9
2016-Feb-01 00:33S 24°15' W 045°36'1211.9
2016-Jan-31 23:33S 24°12' W 045°23'1211.9
2016-Jan-31 22:33S 24°09' W 045°10'1212.3
2016-Jan-31 21:33S 24°06' W 044°58'1212.4
2016-Jan-31 20:33S 24°02' W 044°44'1212.1
2016-Jan-31 19:33S 23°59' W 044°32'1212.5
2016-Jan-31 18:33S 23°55' W 044°19'1212.2
2016-Jan-31 17:33S 23°52' W 044°06'6212.4
2016-Jan-31 12:33S 23°36' W 043°01'1322.9
2016-Jan-31 12:00S 23°30' W 042°48'14 9.0 010 / 161015.910.8 1.025.023.826.0
2016-Jan-31 10:29S 23°28' W 042°33'1212.2
2016-Jan-31 09:32S 23°25' W 042°21'1212.1
2016-Jan-31 08:33S 23°21' W 042°09'1212.0
2016-Jan-31 07:33S 23°17' W 041°57'10313.6
2016-Jan-31 00:00S 22°06' W 040°36'15512.9 050 / 141016.210.8 25.223.5
2016-Jan-30 12:00S 20°00' W 039°00'16013.4 160 / 81018.010.8 0.529.023.229.0
2016-Jan-30 00:00S 17°30' W 038°00'15312.8 130 / 61016.5 5.4 27.022.6
2016-Jan-29 12:00S 15°06' W 037°06'15312.8 140 / 111017.310.8 1.529.822.730.0
2016-Jan-29 00:00S 12°42' W 036°12'   140 / 121015.010.8 27.223.9

Dump ship's entire track history